sensor_id;sensor_type;location;lat;lon;timestamp;P1;durP1;ratioP1;P2;durP2;ratioP2
4839;SDS011;2434;48.486;7.964;2022-11-24T00:01:25;7.40;;;2.00;;
4839;SDS011;2434;48.486;7.964;2022-11-24T00:03:55;6.27;;;1.67;;
4839;SDS011;2434;48.486;7.964;2022-11-24T00:06:24;6.67;;;1.57;;
4839;SDS011;2434;48.486;7.964;2022-11-24T00:08:53;6.93;;;2.27;;
4839;SDS011;2434;48.486;7.964;2022-11-24T00:11:23;7.77;;;1.97;;
4839;SDS011;2434;48.486;7.964;2022-11-24T00:13:54;5.97;;;1.90;;
4839;SDS011;2434;48.486;7.964;2022-11-24T00:16:23;10.13;;;1.57;;
4839;SDS011;2434;48.486;7.964;2022-11-24T00:18:54;5.30;;;1.47;;
4839;SDS011;2434;48.486;7.964;2022-11-24T00:21:23;2.93;;;1.80;;
4839;SDS011;2434;48.486;7.964;2022-11-24T00:23:53;3.67;;;1.50;;
4839;SDS011;2434;48.486;7.964;2022-11-24T00:26:22;6.60;;;2.07;;
4839;SDS011;2434;48.486;7.964;2022-11-24T00:28:54;3.73;;;2.10;;
4839;SDS011;2434;48.486;7.964;2022-11-24T00:31:23;6.43;;;2.00;;
4839;SDS011;2434;48.486;7.964;2022-11-24T00:33:53;5.23;;;1.90;;
4839;SDS011;2434;48.486;7.964;2022-11-24T00:36:24;3.43;;;2.40;;
4839;SDS011;2434;48.486;7.964;2022-11-24T00:38:53;5.23;;;1.73;;
4839;SDS011;2434;48.486;7.964;2022-11-24T00:41:22;6.60;;;1.40;;
4839;SDS011;2434;48.486;7.964;2022-11-24T00:43:51;7.00;;;1.50;;
4839;SDS011;2434;48.486;7.964;2022-11-24T00:46:22;10.73;;;2.07;;
4839;SDS011;2434;48.486;7.964;2022-11-24T00:48:51;5.77;;;1.27;;
4839;SDS011;2434;48.486;7.964;2022-11-24T00:51:21;7.23;;;1.63;;
4839;SDS011;2434;48.486;7.964;2022-11-24T00:53:52;3.30;;;1.30;;
4839;SDS011;2434;48.486;7.964;2022-11-24T00:56:21;3.03;;;1.40;;
4839;SDS011;2434;48.486;7.964;2022-11-24T00:58:50;6.00;;;1.80;;
4839;SDS011;2434;48.486;7.964;2022-11-24T01:01:21;3.60;;;1.33;;
4839;SDS011;2434;48.486;7.964;2022-11-24T01:03:50;4.20;;;1.37;;
4839;SDS011;2434;48.486;7.964;2022-11-24T01:06:20;2.90;;;1.47;;
4839;SDS011;2434;48.486;7.964;2022-11-24T01:08:50;2.87;;;1.30;;
4839;SDS011;2434;48.486;7.964;2022-11-24T01:11:19;3.37;;;1.33;;
4839;SDS011;2434;48.486;7.964;2022-11-24T01:13:50;4.93;;;1.63;;
4839;SDS011;2434;48.486;7.964;2022-11-24T01:16:23;8.13;;;2.07;;
4839;SDS011;2434;48.486;7.964;2022-11-24T01:18:54;7.17;;;1.80;;
4839;SDS011;2434;48.486;7.964;2022-11-24T01:21:22;1.33;;;1.23;;
4839;SDS011;2434;48.486;7.964;2022-11-24T01:23:51;4.97;;;1.53;;
4839;SDS011;2434;48.486;7.964;2022-11-24T01:26:20;4.57;;;1.50;;
4839;SDS011;2434;48.486;7.964;2022-11-24T01:28:51;5.87;;;2.00;;
4839;SDS011;2434;48.486;7.964;2022-11-24T01:31:22;4.03;;;1.40;;
4839;SDS011;2434;48.486;7.964;2022-11-24T01:33:51;4.53;;;1.80;;
4839;SDS011;2434;48.486;7.964;2022-11-24T01:36:19;6.90;;;1.93;;
4839;SDS011;2434;48.486;7.964;2022-11-24T01:38:50;9.10;;;2.70;;
4839;SDS011;2434;48.486;7.964;2022-11-24T01:41:19;7.10;;;1.60;;
4839;SDS011;2434;48.486;7.964;2022-11-24T01:43:49;11.60;;;1.90;;
4839;SDS011;2434;48.486;7.964;2022-11-24T01:46:21;4.07;;;1.80;;
4839;SDS011;2434;48.486;7.964;2022-11-24T01:48:56;4.73;;;1.80;;
4839;SDS011;2434;48.486;7.964;2022-11-24T01:51:30;5.10;;;1.73;;
4839;SDS011;2434;48.486;7.964;2022-11-24T01:54:01;6.87;;;2.40;;
4839;SDS011;2434;48.486;7.964;2022-11-24T01:56:35;7.27;;;2.40;;
4839;SDS011;2434;48.486;7.964;2022-11-24T01:59:07;12.10;;;2.57;;
4839;SDS011;2434;48.486;7.964;2022-11-24T02:01:41;7.77;;;3.27;;
4839;SDS011;2434;48.486;7.964;2022-11-24T02:04:10;7.43;;;2.27;;
4839;SDS011;2434;48.486;7.964;2022-11-24T02:06:41;10.40;;;2.53;;
4839;SDS011;2434;48.486;7.964;2022-11-24T02:09:12;10.40;;;2.60;;
4839;SDS011;2434;48.486;7.964;2022-11-24T02:11:45;5.67;;;1.93;;
4839;SDS011;2434;48.486;7.964;2022-11-24T02:14:14;5.43;;;2.53;;
4839;SDS011;2434;48.486;7.964;2022-11-24T02:16:47;11.50;;;2.77;;
4839;SDS011;2434;48.486;7.964;2022-11-24T02:19:17;12.77;;;2.00;;
4839;SDS011;2434;48.486;7.964;2022-11-24T02:21:54;8.87;;;2.20;;
4839;SDS011;2434;48.486;7.964;2022-11-24T02:24:24;5.57;;;2.10;;
4839;SDS011;2434;48.486;7.964;2022-11-24T02:27:00;6.90;;;2.73;;
4839;SDS011;2434;48.486;7.964;2022-11-24T02:29:30;8.80;;;2.47;;
4839;SDS011;2434;48.486;7.964;2022-11-24T02:31:59;8.63;;;2.83;;
4839;SDS011;2434;48.486;7.964;2022-11-24T02:34:31;8.37;;;2.80;;
4839;SDS011;2434;48.486;7.964;2022-11-24T02:36:59;7.63;;;2.70;;
4839;SDS011;2434;48.486;7.964;2022-11-24T02:39:28;7.97;;;2.80;;
4839;SDS011;2434;48.486;7.964;2022-11-24T02:41:57;13.27;;;2.70;;
4839;SDS011;2434;48.486;7.964;2022-11-24T02:44:31;7.40;;;2.13;;
4839;SDS011;2434;48.486;7.964;2022-11-24T02:47:03;6.30;;;1.90;;
4839;SDS011;2434;48.486;7.964;2022-11-24T02:49:34;8.00;;;2.10;;
4839;SDS011;2434;48.486;7.964;2022-11-24T02:52:02;9.80;;;2.70;;
4839;SDS011;2434;48.486;7.964;2022-11-24T02:54:31;7.50;;;2.50;;
4839;SDS011;2434;48.486;7.964;2022-11-24T02:57:00;7.13;;;1.60;;
4839;SDS011;2434;48.486;7.964;2022-11-24T02:59:30;9.30;;;2.23;;
4839;SDS011;2434;48.486;7.964;2022-11-24T03:01:58;6.20;;;2.10;;
4839;SDS011;2434;48.486;7.964;2022-11-24T03:04:27;7.30;;;1.97;;
4839;SDS011;2434;48.486;7.964;2022-11-24T03:06:55;7.90;;;2.20;;
4839;SDS011;2434;48.486;7.964;2022-11-24T03:09:24;10.30;;;2.40;;
4839;SDS011;2434;48.486;7.964;2022-11-24T03:11:52;5.20;;;2.30;;
4839;SDS011;2434;48.486;7.964;2022-11-24T03:14:20;12.10;;;3.03;;
4839;SDS011;2434;48.486;7.964;2022-11-24T03:16:50;10.23;;;1.93;;
4839;SDS011;2434;48.486;7.964;2022-11-24T03:19:18;6.43;;;2.27;;
4839;SDS011;2434;48.486;7.964;2022-11-24T03:21:46;8.77;;;2.70;;
4839;SDS011;2434;48.486;7.964;2022-11-24T03:24:15;10.73;;;2.20;;
4839;SDS011;2434;48.486;7.964;2022-11-24T03:26:43;14.03;;;2.40;;
4839;SDS011;2434;48.486;7.964;2022-11-24T03:29:12;10.20;;;2.60;;
4839;SDS011;2434;48.486;7.964;2022-11-24T03:31:40;11.00;;;2.50;;
4839;SDS011;2434;48.486;7.964;2022-11-24T03:34:10;5.43;;;1.77;;
4839;SDS011;2434;48.486;7.964;2022-11-24T03:36:39;7.30;;;2.53;;
4839;SDS011;2434;48.486;7.964;2022-11-24T03:39:07;11.57;;;2.80;;
4839;SDS011;2434;48.486;7.964;2022-11-24T03:41:35;10.80;;;2.60;;
4839;SDS011;2434;48.486;7.964;2022-11-24T03:44:04;12.33;;;2.37;;
4839;SDS011;2434;48.486;7.964;2022-11-24T03:46:32;7.50;;;2.17;;
4839;SDS011;2434;48.486;7.964;2022-11-24T03:49:00;7.43;;;2.07;;
4839;SDS011;2434;48.486;7.964;2022-11-24T03:51:30;10.47;;;2.30;;
4839;SDS011;2434;48.486;7.964;2022-11-24T03:53:58;12.30;;;2.10;;
4839;SDS011;2434;48.486;7.964;2022-11-24T03:56:28;10.73;;;2.50;;
4839;SDS011;2434;48.486;7.964;2022-11-24T03:58:56;8.50;;;2.47;;
4839;SDS011;2434;48.486;7.964;2022-11-24T04:01:24;7.93;;;2.60;;
4839;SDS011;2434;48.486;7.964;2022-11-24T04:03:52;6.90;;;2.53;;
4839;SDS011;2434;48.486;7.964;2022-11-24T04:06:21;12.70;;;2.73;;
4839;SDS011;2434;48.486;7.964;2022-11-24T04:08:51;15.67;;;3.17;;
4839;SDS011;2434;48.486;7.964;2022-11-24T04:11:19;9.10;;;2.37;;
4839;SDS011;2434;48.486;7.964;2022-11-24T04:14:04;10.47;;;2.93;;
4839;SDS011;2434;48.486;7.964;2022-11-24T04:16:38;14.27;;;2.93;;
4839;SDS011;2434;48.486;7.964;2022-11-24T04:19:07;10.37;;;4.17;;
4839;SDS011;2434;48.486;7.964;2022-11-24T04:21:35;15.93;;;3.10;;
4839;SDS011;2434;48.486;7.964;2022-11-24T04:24:05;13.97;;;3.23;;
4839;SDS011;2434;48.486;7.964;2022-11-24T04:26:33;12.73;;;2.97;;
4839;SDS011;2434;48.486;7.964;2022-11-24T04:29:02;12.53;;;3.20;;
4839;SDS011;2434;48.486;7.964;2022-11-24T04:31:30;20.03;;;3.20;;
4839;SDS011;2434;48.486;7.964;2022-11-24T04:33:58;11.03;;;3.37;;
4839;SDS011;2434;48.486;7.964;2022-11-24T04:36:26;15.13;;;2.80;;
4839;SDS011;2434;48.486;7.964;2022-11-24T04:38:54;11.57;;;2.90;;
4839;SDS011;2434;48.486;7.964;2022-11-24T04:41:44;21.07;;;3.10;;
4839;SDS011;2434;48.486;7.964;2022-11-24T04:44:14;20.70;;;3.67;;
4839;SDS011;2434;48.486;7.964;2022-11-24T04:46:42;23.60;;;4.20;;
4839;SDS011;2434;48.486;7.964;2022-11-24T04:49:10;11.73;;;2.90;;
4839;SDS011;2434;48.486;7.964;2022-11-24T04:51:39;19.63;;;4.20;;
4839;SDS011;2434;48.486;7.964;2022-11-24T04:54:08;18.93;;;3.47;;
4839;SDS011;2434;48.486;7.964;2022-11-24T04:56:38;17.77;;;4.40;;
4839;SDS011;2434;48.486;7.964;2022-11-24T04:59:10;14.57;;;4.33;;
4839;SDS011;2434;48.486;7.964;2022-11-24T05:01:40;14.20;;;3.30;;
4839;SDS011;2434;48.486;7.964;2022-11-24T05:04:08;14.93;;;3.53;;
4839;SDS011;2434;48.486;7.964;2022-11-24T05:06:37;16.40;;;3.30;;
4839;SDS011;2434;48.486;7.964;2022-11-24T05:09:06;17.00;;;3.40;;
4839;SDS011;2434;48.486;7.964;2022-11-24T05:11:35;32.83;;;6.30;;
4839;SDS011;2434;48.486;7.964;2022-11-24T05:14:03;15.70;;;3.23;;
4839;SDS011;2434;48.486;7.964;2022-11-24T05:16:33;17.77;;;4.00;;
4839;SDS011;2434;48.486;7.964;2022-11-24T05:19:03;15.43;;;3.30;;
4839;SDS011;2434;48.486;7.964;2022-11-24T05:21:31;23.77;;;4.43;;
4839;SDS011;2434;48.486;7.964;2022-11-24T05:23:59;15.10;;;4.20;;
4839;SDS011;2434;48.486;7.964;2022-11-24T05:26:28;20.27;;;4.40;;
4839;SDS011;2434;48.486;7.964;2022-11-24T05:28:56;16.77;;;3.53;;
4839;SDS011;2434;48.486;7.964;2022-11-24T05:31:25;24.57;;;4.20;;
4839;SDS011;2434;48.486;7.964;2022-11-24T05:33:54;15.73;;;3.13;;
4839;SDS011;2434;48.486;7.964;2022-11-24T05:36:23;14.40;;;3.00;;
4839;SDS011;2434;48.486;7.964;2022-11-24T05:39:08;13.73;;;3.50;;
4839;SDS011;2434;48.486;7.964;2022-11-24T05:41:37;17.07;;;3.50;;
4839;SDS011;2434;48.486;7.964;2022-11-24T05:44:05;15.20;;;3.57;;
4839;SDS011;2434;48.486;7.964;2022-11-24T05:46:33;26.03;;;4.40;;
4839;SDS011;2434;48.486;7.964;2022-11-24T05:49:03;16.00;;;3.03;;
4839;SDS011;2434;48.486;7.964;2022-11-24T05:51:31;13.97;;;3.90;;
4839;SDS011;2434;48.486;7.964;2022-11-24T05:54:00;22.43;;;4.20;;
4839;SDS011;2434;48.486;7.964;2022-11-24T05:56:28;19.83;;;4.00;;
4839;SDS011;2434;48.486;7.964;2022-11-24T05:58:56;13.97;;;4.10;;
4839;SDS011;2434;48.486;7.964;2022-11-24T06:01:25;21.13;;;4.10;;
4839;SDS011;2434;48.486;7.964;2022-11-24T06:03:53;22.30;;;5.07;;
4839;SDS011;2434;48.486;7.964;2022-11-24T06:06:23;20.33;;;4.03;;
4839;SDS011;2434;48.486;7.964;2022-11-24T06:08:51;20.37;;;4.83;;
4839;SDS011;2434;48.486;7.964;2022-11-24T06:11:19;28.73;;;5.13;;
4839;SDS011;2434;48.486;7.964;2022-11-24T06:13:48;15.80;;;4.13;;
4839;SDS011;2434;48.486;7.964;2022-11-24T06:16:16;24.77;;;4.97;;
4839;SDS011;2434;48.486;7.964;2022-11-24T06:18:44;25.30;;;5.50;;
4839;SDS011;2434;48.486;7.964;2022-11-24T06:21:13;25.80;;;4.57;;
4839;SDS011;2434;48.486;7.964;2022-11-24T06:23:44;20.13;;;3.37;;
4839;SDS011;2434;48.486;7.964;2022-11-24T06:26:14;16.87;;;3.33;;
4839;SDS011;2434;48.486;7.964;2022-11-24T06:28:43;29.67;;;4.50;;
4839;SDS011;2434;48.486;7.964;2022-11-24T06:31:12;21.63;;;4.03;;
4839;SDS011;2434;48.486;7.964;2022-11-24T06:33:40;15.70;;;4.37;;
4839;SDS011;2434;48.486;7.964;2022-11-24T06:36:09;21.10;;;5.20;;
4839;SDS011;2434;48.486;7.964;2022-11-24T06:38:40;17.83;;;4.83;;
4839;SDS011;2434;48.486;7.964;2022-11-24T06:41:10;19.10;;;4.40;;
4839;SDS011;2434;48.486;7.964;2022-11-24T06:43:40;18.67;;;5.03;;
4839;SDS011;2434;48.486;7.964;2022-11-24T06:46:09;15.23;;;4.50;;
4839;SDS011;2434;48.486;7.964;2022-11-24T06:48:38;15.10;;;4.80;;
4839;SDS011;2434;48.486;7.964;2022-11-24T06:51:08;14.40;;;4.10;;
4839;SDS011;2434;48.486;7.964;2022-11-24T06:53:39;21.87;;;3.50;;
4839;SDS011;2434;48.486;7.964;2022-11-24T06:56:08;15.83;;;3.80;;
4839;SDS011;2434;48.486;7.964;2022-11-24T06:58:42;21.67;;;4.90;;
4839;SDS011;2434;48.486;7.964;2022-11-24T07:01:13;26.33;;;4.50;;
4839;SDS011;2434;48.486;7.964;2022-11-24T07:03:42;21.07;;;4.50;;
4839;SDS011;2434;48.486;7.964;2022-11-24T07:06:10;19.63;;;4.47;;
4839;SDS011;2434;48.486;7.964;2022-11-24T07:08:39;13.23;;;3.70;;
4839;SDS011;2434;48.486;7.964;2022-11-24T07:11:08;18.90;;;4.83;;
4839;SDS011;2434;48.486;7.964;2022-11-24T07:13:40;15.93;;;4.43;;
4839;SDS011;2434;48.486;7.964;2022-11-24T07:16:10;24.10;;;4.57;;
4839;SDS011;2434;48.486;7.964;2022-11-24T07:18:39;19.53;;;4.17;;
4839;SDS011;2434;48.486;7.964;2022-11-24T07:21:08;18.43;;;4.30;;
4839;SDS011;2434;48.486;7.964;2022-11-24T07:23:36;18.07;;;4.10;;
4839;SDS011;2434;48.486;7.964;2022-11-24T07:26:05;17.23;;;5.27;;
4839;SDS011;2434;48.486;7.964;2022-11-24T07:28:35;20.60;;;4.90;;
4839;SDS011;2434;48.486;7.964;2022-11-24T07:31:04;22.13;;;4.93;;
4839;SDS011;2434;48.486;7.964;2022-11-24T07:33:33;17.20;;;4.80;;
4839;SDS011;2434;48.486;7.964;2022-11-24T07:36:02;22.07;;;4.97;;
4839;SDS011;2434;48.486;7.964;2022-11-24T07:38:32;25.97;;;6.10;;
4839;SDS011;2434;48.486;7.964;2022-11-24T07:41:00;22.97;;;5.10;;
4839;SDS011;2434;48.486;7.964;2022-11-24T07:43:32;13.80;;;4.27;;
4839;SDS011;2434;48.486;7.964;2022-11-24T07:46:04;16.13;;;3.83;;
4839;SDS011;2434;48.486;7.964;2022-11-24T07:48:34;18.03;;;4.17;;
4839;SDS011;2434;48.486;7.964;2022-11-24T07:51:02;16.37;;;4.00;;
4839;SDS011;2434;48.486;7.964;2022-11-24T07:53:32;13.03;;;2.60;;
4839;SDS011;2434;48.486;7.964;2022-11-24T07:56:01;14.47;;;3.00;;
4839;SDS011;2434;48.486;7.964;2022-11-24T07:58:32;13.43;;;3.20;;
4839;SDS011;2434;48.486;7.964;2022-11-24T08:01:08;10.63;;;2.60;;
4839;SDS011;2434;48.486;7.964;2022-11-24T08:03:38;11.83;;;2.57;;
4839;SDS011;2434;48.486;7.964;2022-11-24T08:06:06;11.17;;;3.20;;
4839;SDS011;2434;48.486;7.964;2022-11-24T08:08:55;9.07;;;2.07;;
4839;SDS011;2434;48.486;7.964;2022-11-24T08:11:24;16.93;;;3.60;;
4839;SDS011;2434;48.486;7.964;2022-11-24T08:13:52;11.60;;;3.17;;
4839;SDS011;2434;48.486;7.964;2022-11-24T08:16:22;15.63;;;4.30;;
4839;SDS011;2434;48.486;7.964;2022-11-24T08:18:51;9.67;;;2.93;;
4839;SDS011;2434;48.486;7.964;2022-11-24T08:21:21;11.70;;;3.73;;
4839;SDS011;2434;48.486;7.964;2022-11-24T08:23:52;8.30;;;4.20;;
4839;SDS011;2434;48.486;7.964;2022-11-24T08:26:21;14.40;;;4.03;;
4839;SDS011;2434;48.486;7.964;2022-11-24T08:28:51;17.90;;;5.23;;
4839;SDS011;2434;48.486;7.964;2022-11-24T08:31:23;24.10;;;3.73;;
4839;SDS011;2434;48.486;7.964;2022-11-24T08:33:58;8.60;;;3.13;;
4839;SDS011;2434;48.486;7.964;2022-11-24T08:36:27;12.60;;;2.63;;
4839;SDS011;2434;48.486;7.964;2022-11-24T08:38:57;14.03;;;2.80;;
4839;SDS011;2434;48.486;7.964;2022-11-24T08:41:28;11.27;;;3.30;;
4839;SDS011;2434;48.486;7.964;2022-11-24T08:43:57;8.63;;;2.43;;
4839;SDS011;2434;48.486;7.964;2022-11-24T08:46:26;11.03;;;2.90;;
4839;SDS011;2434;48.486;7.964;2022-11-24T08:48:55;9.93;;;2.37;;
4839;SDS011;2434;48.486;7.964;2022-11-24T08:51:24;12.47;;;2.40;;
4839;SDS011;2434;48.486;7.964;2022-11-24T08:53:53;15.33;;;3.20;;
4839;SDS011;2434;48.486;7.964;2022-11-24T08:56:24;15.10;;;3.10;;
4839;SDS011;2434;48.486;7.964;2022-11-24T08:58:52;20.10;;;3.60;;
4839;SDS011;2434;48.486;7.964;2022-11-24T09:01:21;18.27;;;4.10;;
4839;SDS011;2434;48.486;7.964;2022-11-24T09:03:52;9.80;;;3.47;;
4839;SDS011;2434;48.486;7.964;2022-11-24T09:06:22;13.90;;;3.97;;
4839;SDS011;2434;48.486;7.964;2022-11-24T09:08:52;23.30;;;4.00;;
4839;SDS011;2434;48.486;7.964;2022-11-24T09:11:22;16.70;;;4.83;;
4839;SDS011;2434;48.486;7.964;2022-11-24T09:13:51;24.07;;;4.80;;
4839;SDS011;2434;48.486;7.964;2022-11-24T09:16:20;15.07;;;3.70;;
4839;SDS011;2434;48.486;7.964;2022-11-24T09:18:56;13.10;;;3.33;;
4839;SDS011;2434;48.486;7.964;2022-11-24T09:21:26;19.83;;;4.53;;
4839;SDS011;2434;48.486;7.964;2022-11-24T09:23:55;16.90;;;3.90;;
4839;SDS011;2434;48.486;7.964;2022-11-24T09:26:24;24.10;;;3.60;;
4839;SDS011;2434;48.486;7.964;2022-11-24T09:28:54;16.90;;;4.23;;
4839;SDS011;2434;48.486;7.964;2022-11-24T09:31:24;16.03;;;3.90;;
4839;SDS011;2434;48.486;7.964;2022-11-24T09:33:54;24.40;;;4.97;;
4839;SDS011;2434;48.486;7.964;2022-11-24T09:36:24;16.73;;;3.50;;
4839;SDS011;2434;48.486;7.964;2022-11-24T09:38:53;24.83;;;3.73;;
4839;SDS011;2434;48.486;7.964;2022-11-24T09:41:33;22.83;;;4.07;;
4839;SDS011;2434;48.486;7.964;2022-11-24T09:44:23;20.00;;;4.43;;
4839;SDS011;2434;48.486;7.964;2022-11-24T09:47:17;20.60;;;5.73;;
4839;SDS011;2434;48.486;7.964;2022-11-24T09:49:53;18.83;;;3.60;;
4839;SDS011;2434;48.486;7.964;2022-11-24T09:52:36;10.67;;;3.60;;
4839;SDS011;2434;48.486;7.964;2022-11-24T09:55:14;17.00;;;4.97;;
4839;SDS011;2434;48.486;7.964;2022-11-24T09:58:00;14.67;;;3.60;;
4839;SDS011;2434;48.486;7.964;2022-11-24T10:00:36;13.80;;;4.00;;
4839;SDS011;2434;48.486;7.964;2022-11-24T10:03:04;17.50;;;3.97;;
4839;SDS011;2434;48.486;7.964;2022-11-24T10:05:38;15.97;;;4.23;;
4839;SDS011;2434;48.486;7.964;2022-11-24T10:08:09;17.13;;;3.50;;
4839;SDS011;2434;48.486;7.964;2022-11-24T10:10:48;9.17;;;2.83;;
4839;SDS011;2434;48.486;7.964;2022-11-24T10:13:25;19.23;;;4.40;;
4839;SDS011;2434;48.486;7.964;2022-11-24T10:16:02;12.23;;;2.90;;
4839;SDS011;2434;48.486;7.964;2022-11-24T10:18:44;15.97;;;3.30;;
4839;SDS011;2434;48.486;7.964;2022-11-24T10:21:24;18.73;;;3.60;;
4839;SDS011;2434;48.486;7.964;2022-11-24T10:24:17;12.23;;;3.57;;
4839;SDS011;2434;48.486;7.964;2022-11-24T10:26:59;16.33;;;3.00;;
4839;SDS011;2434;48.486;7.964;2022-11-24T10:29:30;18.07;;;3.20;;
4839;SDS011;2434;48.486;7.964;2022-11-24T10:32:04;11.53;;;3.40;;
4839;SDS011;2434;48.486;7.964;2022-11-24T10:34:39;20.30;;;3.60;;
4839;SDS011;2434;48.486;7.964;2022-11-24T10:37:13;19.53;;;5.10;;
4839;SDS011;2434;48.486;7.964;2022-11-24T10:39:48;9.03;;;2.80;;
4839;SDS011;2434;48.486;7.964;2022-11-24T10:42:26;17.47;;;3.83;;
4839;SDS011;2434;48.486;7.964;2022-11-24T10:44:58;14.30;;;3.03;;
4839;SDS011;2434;48.486;7.964;2022-11-24T10:47:28;9.20;;;2.90;;
4839;SDS011;2434;48.486;7.964;2022-11-24T10:49:58;16.47;;;3.60;;
4839;SDS011;2434;48.486;7.964;2022-11-24T10:52:30;12.33;;;2.80;;
4839;SDS011;2434;48.486;7.964;2022-11-24T10:55:05;16.73;;;3.57;;
4839;SDS011;2434;48.486;7.964;2022-11-24T10:57:35;11.33;;;2.87;;
4839;SDS011;2434;48.486;7.964;2022-11-24T11:03:09;17.03;;;7.20;;
4839;SDS011;2434;48.486;7.964;2022-11-24T11:05:43;18.73;;;4.90;;
4839;SDS011;2434;48.486;7.964;2022-11-24T11:08:19;11.30;;;3.37;;
4839;SDS011;2434;48.486;7.964;2022-11-24T11:10:50;6.87;;;3.10;;
4839;SDS011;2434;48.486;7.964;2022-11-24T11:13:39;16.40;;;4.10;;
4839;SDS011;2434;48.486;7.964;2022-11-24T11:16:24;11.47;;;2.80;;
4839;SDS011;2434;48.486;7.964;2022-11-24T11:18:56;16.80;;;3.77;;
4839;SDS011;2434;48.486;7.964;2022-11-24T11:21:29;12.97;;;4.07;;
4839;SDS011;2434;48.486;7.964;2022-11-24T11:24:01;14.77;;;3.30;;
4839;SDS011;2434;48.486;7.964;2022-11-24T11:26:36;16.37;;;2.80;;
4839;SDS011;2434;48.486;7.964;2022-11-24T11:29:15;16.13;;;4.37;;
4839;SDS011;2434;48.486;7.964;2022-11-24T11:32:14;14.93;;;3.00;;
4839;SDS011;2434;48.486;7.964;2022-11-24T11:35:05;9.13;;;2.73;;
4839;SDS011;2434;48.486;7.964;2022-11-24T11:37:38;15.73;;;2.47;;
4839;SDS011;2434;48.486;7.964;2022-11-24T11:40:10;10.40;;;2.90;;
4839;SDS011;2434;48.486;7.964;2022-11-24T11:42:43;11.50;;;2.10;;
4839;SDS011;2434;48.486;7.964;2022-11-24T11:45:30;11.17;;;2.10;;
4839;SDS011;2434;48.486;7.964;2022-11-24T11:48:06;7.00;;;1.93;;
4839;SDS011;2434;48.486;7.964;2022-11-24T11:50:48;8.90;;;2.50;;
4839;SDS011;2434;48.486;7.964;2022-11-24T11:53:40;10.70;;;1.90;;
4839;SDS011;2434;48.486;7.964;2022-11-24T11:56:18;12.90;;;2.00;;
4839;SDS011;2434;48.486;7.964;2022-11-24T11:59:00;9.70;;;2.40;;
4839;SDS011;2434;48.486;7.964;2022-11-24T12:01:58;11.10;;;2.73;;
4839;SDS011;2434;48.486;7.964;2022-11-24T12:04:43;9.17;;;2.20;;
4839;SDS011;2434;48.486;7.964;2022-11-24T12:07:43;8.27;;;2.50;;
4839;SDS011;2434;48.486;7.964;2022-11-24T12:10:22;10.77;;;2.77;;
4839;SDS011;2434;48.486;7.964;2022-11-24T12:13:02;9.63;;;1.90;;
4839;SDS011;2434;48.486;7.964;2022-11-24T12:16:02;6.57;;;1.73;;
4839;SDS011;2434;48.486;7.964;2022-11-24T12:18:41;7.83;;;2.13;;
4839;SDS011;2434;48.486;7.964;2022-11-24T12:21:24;7.30;;;1.63;;
4839;SDS011;2434;48.486;7.964;2022-11-24T12:24:00;10.70;;;2.00;;
4839;SDS011;2434;48.486;7.964;2022-11-24T12:26:38;7.37;;;2.50;;
4839;SDS011;2434;48.486;7.964;2022-11-24T12:29:24;8.13;;;2.37;;
4839;SDS011;2434;48.486;7.964;2022-11-24T12:32:26;7.60;;;2.17;;
4839;SDS011;2434;48.486;7.964;2022-11-24T12:35:12;9.53;;;1.90;;
4839;SDS011;2434;48.486;7.964;2022-11-24T12:37:50;9.13;;;1.80;;
4839;SDS011;2434;48.486;7.964;2022-11-24T12:40:29;8.93;;;1.80;;
4839;SDS011;2434;48.486;7.964;2022-11-24T12:43:12;8.40;;;1.97;;
4839;SDS011;2434;48.486;7.964;2022-11-24T12:45:50;9.07;;;2.37;;
4839;SDS011;2434;48.486;7.964;2022-11-24T12:48:27;11.87;;;2.60;;
4839;SDS011;2434;48.486;7.964;2022-11-24T12:51:09;13.00;;;2.10;;
4839;SDS011;2434;48.486;7.964;2022-11-24T12:53:42;8.47;;;1.63;;
4839;SDS011;2434;48.486;7.964;2022-11-24T12:56:13;11.47;;;2.37;;
4839;SDS011;2434;48.486;7.964;2022-11-24T12:58:44;8.50;;;2.07;;
4839;SDS011;2434;48.486;7.964;2022-11-24T13:01:23;4.80;;;1.87;;
4839;SDS011;2434;48.486;7.964;2022-11-24T13:04:03;4.67;;;1.67;;
4839;SDS011;2434;48.486;7.964;2022-11-24T13:06:41;9.30;;;2.13;;
4839;SDS011;2434;48.486;7.964;2022-11-24T13:09:17;6.93;;;2.10;;
4839;SDS011;2434;48.486;7.964;2022-11-24T13:11:46;8.20;;;2.33;;
4839;SDS011;2434;48.486;7.964;2022-11-24T13:14:19;9.10;;;2.73;;
4839;SDS011;2434;48.486;7.964;2022-11-24T13:16:51;8.50;;;2.13;;
4839;SDS011;2434;48.486;7.964;2022-11-24T13:19:41;8.03;;;2.47;;
4839;SDS011;2434;48.486;7.964;2022-11-24T13:22:14;5.80;;;1.97;;
4839;SDS011;2434;48.486;7.964;2022-11-24T13:25:02;9.17;;;1.90;;
4839;SDS011;2434;48.486;7.964;2022-11-24T13:27:40;8.33;;;2.03;;
4839;SDS011;2434;48.486;7.964;2022-11-24T13:39:00;7.60;;;2.57;;
4839;SDS011;2434;48.486;7.964;2022-11-24T13:44:27;8.00;;;2.70;;
4839;SDS011;2434;48.486;7.964;2022-11-24T13:49:57;5.67;;;1.80;;
4839;SDS011;2434;48.486;7.964;2022-11-24T13:52:36;6.33;;;2.00;;
4839;SDS011;2434;48.486;7.964;2022-11-24T13:58:21;7.43;;;2.67;;
4839;SDS011;2434;48.486;7.964;2022-11-24T14:00:57;9.87;;;2.53;;
4839;SDS011;2434;48.486;7.964;2022-11-24T14:03:40;7.53;;;1.90;;
4839;SDS011;2434;48.486;7.964;2022-11-24T14:06:34;9.07;;;2.57;;
4839;SDS011;2434;48.486;7.964;2022-11-24T14:09:19;9.00;;;2.23;;
4839;SDS011;2434;48.486;7.964;2022-11-24T14:11:56;5.60;;;1.77;;
4839;SDS011;2434;48.486;7.964;2022-11-24T14:14:28;8.03;;;2.17;;
4839;SDS011;2434;48.486;7.964;2022-11-24T14:17:16;7.67;;;2.20;;
4839;SDS011;2434;48.486;7.964;2022-11-24T14:19:46;8.07;;;1.90;;
4839;SDS011;2434;48.486;7.964;2022-11-24T14:22:18;11.27;;;2.67;;
4839;SDS011;2434;48.486;7.964;2022-11-24T14:24:51;5.57;;;1.93;;
4839;SDS011;2434;48.486;7.964;2022-11-24T14:27:26;7.43;;;1.83;;
4839;SDS011;2434;48.486;7.964;2022-11-24T14:29:57;6.20;;;1.80;;
4839;SDS011;2434;48.486;7.964;2022-11-24T14:32:28;4.57;;;1.83;;
4839;SDS011;2434;48.486;7.964;2022-11-24T14:34:57;4.97;;;2.10;;
4839;SDS011;2434;48.486;7.964;2022-11-24T14:37:27;5.70;;;2.13;;
4839;SDS011;2434;48.486;7.964;2022-11-24T14:39:57;4.07;;;1.80;;
4839;SDS011;2434;48.486;7.964;2022-11-24T14:42:25;5.23;;;1.53;;
4839;SDS011;2434;48.486;7.964;2022-11-24T14:44:54;8.30;;;2.33;;
4839;SDS011;2434;48.486;7.964;2022-11-24T14:47:26;10.63;;;1.90;;
4839;SDS011;2434;48.486;7.964;2022-11-24T14:50:05;37.07;;;4.10;;
4839;SDS011;2434;48.486;7.964;2022-11-24T14:52:41;7.40;;;2.00;;
4839;SDS011;2434;48.486;7.964;2022-11-24T14:55:22;8.63;;;2.10;;
4839;SDS011;2434;48.486;7.964;2022-11-24T14:57:53;4.43;;;1.77;;
4839;SDS011;2434;48.486;7.964;2022-11-24T15:00:24;5.90;;;2.30;;
4839;SDS011;2434;48.486;7.964;2022-11-24T15:03:06;3.63;;;2.00;;
4839;SDS011;2434;48.486;7.964;2022-11-24T15:05:52;6.53;;;3.33;;
4839;SDS011;2434;48.486;7.964;2022-11-24T15:08:24;11.03;;;4.87;;
4839;SDS011;2434;48.486;7.964;2022-11-24T15:10:55;10.70;;;4.70;;
4839;SDS011;2434;48.486;7.964;2022-11-24T15:13:26;10.90;;;4.80;;
4839;SDS011;2434;48.486;7.964;2022-11-24T15:15:57;18.20;;;5.03;;
4839;SDS011;2434;48.486;7.964;2022-11-24T15:18:32;12.80;;;4.43;;
4839;SDS011;2434;48.486;7.964;2022-11-24T15:21:03;11.83;;;5.10;;
4839;SDS011;2434;48.486;7.964;2022-11-24T15:23:34;12.37;;;6.33;;
4839;SDS011;2434;48.486;7.964;2022-11-24T15:28:58;19.00;;;8.53;;
4839;SDS011;2434;48.486;7.964;2022-11-24T15:31:26;28.80;;;13.67;;
4839;SDS011;2434;48.486;7.964;2022-11-24T15:33:55;23.13;;;11.43;;
4839;SDS011;2434;48.486;7.964;2022-11-24T15:36:23;23.87;;;10.70;;
4839;SDS011;2434;48.486;7.964;2022-11-24T15:38:53;23.80;;;11.07;;
4839;SDS011;2434;48.486;7.964;2022-11-24T15:41:21;13.73;;;7.23;;
4839;SDS011;2434;48.486;7.964;2022-11-24T15:43:54;17.23;;;7.43;;
4839;SDS011;2434;48.486;7.964;2022-11-24T15:46:24;15.50;;;6.03;;
4839;SDS011;2434;48.486;7.964;2022-11-24T15:48:54;10.43;;;5.37;;
4839;SDS011;2434;48.486;7.964;2022-11-24T15:51:23;11.90;;;5.40;;
4839;SDS011;2434;48.486;7.964;2022-11-24T15:53:54;8.20;;;5.00;;
4839;SDS011;2434;48.486;7.964;2022-11-24T15:56:28;13.17;;;7.10;;
4839;SDS011;2434;48.486;7.964;2022-11-24T15:59:01;14.57;;;7.37;;
4839;SDS011;2434;48.486;7.964;2022-11-24T16:01:31;12.43;;;7.20;;
4839;SDS011;2434;48.486;7.964;2022-11-24T16:04:00;15.53;;;6.97;;